createdAt,value
2019-03-20T00:02:59.650Z,53.67
2019-03-20T00:08:03.774Z,80.37
2019-03-20T00:13:07.676Z,91.30
2019-03-20T00:18:11.382Z,58.27
2019-03-20T00:23:15.213Z,113.90
2019-03-20T00:28:19.018Z,45.00
2019-03-20T00:33:22.731Z,51.00
2019-03-20T00:38:26.459Z,48.10
2019-03-20T00:43:30.192Z,16.53
2019-03-20T00:48:34.157Z,17.47
2019-03-20T00:53:37.876Z,16.77
2019-03-20T00:58:41.680Z,17.03
2019-03-20T01:03:45.639Z,17.93
2019-03-20T01:08:50.106Z,33.60
2019-03-20T01:13:53.834Z,25.40
2019-03-20T01:18:57.550Z,27.50
2019-03-20T01:24:01.251Z,14.47
2019-03-20T01:29:04.980Z,9.50
2019-03-20T01:34:09.226Z,10.43
2019-03-20T01:39:12.947Z,11.07
2019-03-20T01:44:16.664Z,15.20
2019-03-20T01:49:20.662Z,24.53
2019-03-20T01:54:24.383Z,19.73
2019-03-20T01:59:28.095Z,15.57
2019-03-20T02:04:31.892Z,8.80
2019-03-20T02:09:35.631Z,9.80
2019-03-20T02:14:39.347Z,10.27
2019-03-20T02:19:43.056Z,11.77
2019-03-20T02:24:46.775Z,14.93
2019-03-20T02:29:51.130Z,14.87
2019-03-20T02:34:54.874Z,17.73
2019-03-20T02:39:58.863Z,18.13
2019-03-20T02:45:02.663Z,20.27
2019-03-20T02:50:06.674Z,22.73
2019-03-20T02:55:10.852Z,17.67
2019-03-20T03:00:14.711Z,13.57
2019-03-20T03:05:18.671Z,15.93
2019-03-20T03:10:22.441Z,18.80
2019-03-20T03:15:26.149Z,16.70
2019-03-20T03:20:29.866Z,17.60
2019-03-20T03:25:33.559Z,18.67
2019-03-20T03:30:37.259Z,23.57
2019-03-20T03:35:40.991Z,28.43
2019-03-20T03:40:44.870Z,30.17
2019-03-20T03:45:48.596Z,29.30
2019-03-20T03:50:52.348Z,19.17
2019-03-20T03:55:56.068Z,14.03
2019-03-20T04:00:59.836Z,22.73
2019-03-20T04:06:03.686Z,28.40
2019-03-20T04:11:07.395Z,31.70
2019-03-20T04:16:11.087Z,22.87
2019-03-20T04:21:14.772Z,31.47
2019-03-20T04:26:18.472Z,27.47
2019-03-20T04:31:22.558Z,23.80
2019-03-20T04:36:26.287Z,20.20
2019-03-20T04:41:29.983Z,21.20
2019-03-20T04:46:33.752Z,21.43
2019-03-20T04:51:37.639Z,20.77
2019-03-20T04:56:41.372Z,19.67
2019-03-20T05:01:45.374Z,18.27
2019-03-20T05:06:58.200Z,35.53
2019-03-20T05:11:55.274Z,22.90
2019-03-20T05:16:59.057Z,18.00
2019-03-20T05:22:02.781Z,16.53
2019-03-20T05:27:06.542Z,16.00
2019-03-20T05:32:10.242Z,16.70
2019-03-20T05:37:14.314Z,23.10
2019-03-20T05:42:18.105Z,14.40
2019-03-20T05:47:22.043Z,48.20
2019-03-20T05:52:25.773Z,18.93
2019-03-20T05:57:29.514Z,23.70
2019-03-20T06:02:33.253Z,41.43
2019-03-20T06:07:37.028Z,155.97
2019-03-20T06:12:41.043Z,266.23
2019-03-20T06:17:46.854Z,268.70
2019-03-20T06:22:50.281Z,174.93
2019-03-20T06:27:53.989Z,149.00
2019-03-20T06:32:59.777Z,311.80
2019-03-20T06:38:03.175Z,433.23
2019-03-20T06:43:06.938Z,310.73
2019-03-20T06:48:10.669Z,368.27
2019-03-20T06:53:14.650Z,347.17
2019-03-20T06:58:18.376Z,353.67
2019-03-20T07:03:29.630Z,434.50
2019-03-20T07:08:37.088Z,265.30
2019-03-20T07:13:41.054Z,341.90
2019-03-20T07:18:44.843Z,470.50
2019-03-20T07:23:48.837Z,270.50
2019-03-20T07:28:52.551Z,598.40
2019-03-20T07:33:56.245Z,611.47
2019-03-20T07:39:00.302Z,432.33
2019-03-20T07:44:04.187Z,565.90
2019-03-20T07:49:07.891Z,721.07
2019-03-20T07:54:12.022Z,678.87
2019-03-20T07:59:15.727Z,661.03
2019-03-20T08:04:19.477Z,426.10
2019-03-20T08:09:25.569Z,567.60
2019-03-20T08:14:28.610Z,693.33
2019-03-20T08:19:32.319Z,639.27
2019-03-20T08:24:36.022Z,716.10
2019-03-20T08:29:39.732Z,375.50
2019-03-20T08:34:43.449Z,375.87
2019-03-20T08:39:47.174Z,398.73
2019-03-20T08:44:51.133Z,461.83
2019-03-20T08:49:54.834Z,796.57
2019-03-20T08:54:58.537Z,633.73
2019-03-20T09:00:02.249Z,992.27
2019-03-20T09:05:07.540Z,708.00
2019-03-20T09:10:13.825Z,163.93
2019-03-20T09:15:17.689Z,852.00
2019-03-20T09:20:21.398Z,583.03
2019-03-20T09:25:25.125Z,111.93
2019-03-20T09:30:28.889Z,410.17
2019-03-20T09:35:32.610Z,531.43
2019-03-20T09:40:36.343Z,117.63
2019-03-20T09:45:40.321Z,480.03
2019-03-20T09:50:44.040Z,371.23
2019-03-20T09:55:47.801Z,262.50
2019-03-20T10:00:51.521Z,496.57
2019-03-20T10:05:55.495Z,392.43
2019-03-20T10:10:59.222Z,150.13
2019-03-20T10:16:02.959Z,207.67
2019-03-20T10:21:06.664Z,702.63
2019-03-20T10:26:10.366Z,222.20
2019-03-20T10:31:14.090Z,217.93
2019-03-20T10:36:17.825Z,285.17
2019-03-20T10:41:21.555Z,250.70
2019-03-20T10:46:25.298Z,221.00
2019-03-20T10:51:29.118Z,662.67
2019-03-20T10:56:32.877Z,778.07
2019-03-20T11:01:42.636Z,999.90
2019-03-20T11:06:42.272Z,784.00
2019-03-20T11:11:46.074Z,783.83
2019-03-20T11:16:49.834Z,611.83
2019-03-20T11:21:53.795Z,391.40
2019-03-20T11:26:57.778Z,595.53
2019-03-20T11:32:02.311Z,460.47
2019-03-20T11:37:06.116Z,631.03
2019-03-20T11:42:10.164Z,845.07
2019-03-20T11:47:13.900Z,438.73
2019-03-20T11:52:17.912Z,936.43
2019-03-20T11:57:21.813Z,897.97
2019-03-20T12:02:28.474Z,999.90
2019-03-20T12:07:31.078Z,700.77
2019-03-20T12:12:34.812Z,752.47
2019-03-20T12:17:38.672Z,858.17
2019-03-20T12:22:42.418Z,504.20
2019-03-20T12:27:46.225Z,752.90
2019-03-20T12:32:50.093Z,900.53
2019-03-20T12:37:53.906Z,698.17
2019-03-20T12:42:57.866Z,406.20
2019-03-20T12:48:01.661Z,975.03
2019-03-20T12:53:05.893Z,650.10
2019-03-20T12:58:09.681Z,910.90
2019-03-20T13:08:17.142Z,933.40
2019-03-20T13:13:20.862Z,999.90
2019-03-20T13:18:24.186Z,976.73
2019-03-20T13:23:28.786Z,617.17
2019-03-20T13:28:32.081Z,553.10
2019-03-20T13:33:35.494Z,632.43
2019-03-20T13:38:39.460Z,814.03
2019-03-20T13:43:42.924Z,525.87
2019-03-20T13:48:46.286Z,538.70
2019-03-20T13:53:49.658Z,788.13
2019-03-20T13:58:53.070Z,948.90
2019-03-20T14:03:56.420Z,746.60
2019-03-20T14:08:59.947Z,539.87
2019-03-20T14:14:03.928Z,861.73
2019-03-20T14:19:07.500Z,790.37
2019-03-20T14:24:11.021Z,999.90
2019-03-20T14:29:14.410Z,999.90
2019-03-20T14:34:18.314Z,855.67
2019-03-20T14:39:21.746Z,999.90
2019-03-20T14:44:25.637Z,955.40
2019-03-20T14:49:29.490Z,906.83
2019-03-20T14:54:32.853Z,991.20
2019-03-20T14:59:36.179Z,969.27
2019-03-20T15:04:39.642Z,981.43
2019-03-20T15:09:43.666Z,999.90
2019-03-20T15:14:47.436Z,999.90
2019-03-20T15:19:51.106Z,999.90
2019-03-20T15:24:54.571Z,999.90
2019-03-20T15:29:58.346Z,964.30
2019-03-20T15:35:02.579Z,898.30
2019-03-20T15:40:07.186Z,999.90
2019-03-20T15:45:10.975Z,999.90
2019-03-20T15:50:14.864Z,999.90
2019-03-20T15:55:19.871Z,999.90
2019-03-20T16:00:23.254Z,999.90
2019-03-20T16:05:26.998Z,999.90
2019-03-20T16:10:30.388Z,999.90
2019-03-20T16:15:33.769Z,999.90
2019-03-20T16:20:38.052Z,999.90
2019-03-20T16:25:41.406Z,999.90
2019-03-20T16:30:44.729Z,999.90
2019-03-20T16:35:48.950Z,999.90
2019-03-20T16:40:52.525Z,999.90
2019-03-20T16:45:56.157Z,999.90
2019-03-20T16:50:59.721Z,999.90
2019-03-20T16:56:03.069Z,999.90
2019-03-20T17:01:06.463Z,999.90
2019-03-20T17:06:09.890Z,999.90
2019-03-20T17:11:13.294Z,999.90
2019-03-20T17:16:17.124Z,999.90
2019-03-20T17:21:20.488Z,919.23
2019-03-20T17:26:23.858Z,999.90
2019-03-20T17:31:27.809Z,999.90
2019-03-20T17:36:31.573Z,981.90
2019-03-20T17:41:36.820Z,904.60
2019-03-20T17:46:40.946Z,927.13
2019-03-20T17:51:44.340Z,999.90
2019-03-20T17:56:47.632Z,999.90
2019-03-20T18:01:50.920Z,931.33
2019-03-20T18:06:55.082Z,999.90
2019-03-20T18:11:59.024Z,999.90
2019-03-20T18:17:02.833Z,943.97
2019-03-20T18:22:06.232Z,999.90
2019-03-20T18:27:09.635Z,999.90
2019-03-20T18:32:12.975Z,908.27
2019-03-20T18:37:16.740Z,999.90
2019-03-20T18:42:20.136Z,999.90
2019-03-20T18:47:23.551Z,943.90
2019-03-20T18:52:26.844Z,959.67
2019-03-20T18:57:30.251Z,992.00
2019-03-20T19:02:34.153Z,923.00
2019-03-20T19:07:38.163Z,853.73
2019-03-20T19:12:42.487Z,967.27
2019-03-20T19:17:45.973Z,962.27
2019-03-20T19:22:49.776Z,968.87
2019-03-20T19:27:53.656Z,999.90
2019-03-20T19:32:56.970Z,999.90
2019-03-20T19:38:00.268Z,999.90
2019-03-20T19:43:05.485Z,989.03
2019-03-20T19:48:09.009Z,997.53
2019-03-20T19:53:12.329Z,999.90
2019-03-20T19:58:15.667Z,999.90
2019-03-20T20:03:20.726Z,999.90
2019-03-20T20:08:24.120Z,999.90
2019-03-20T20:13:27.892Z,999.90
2019-03-20T20:18:32.333Z,999.90
2019-03-20T20:23:36.068Z,999.90
2019-03-20T20:28:39.363Z,999.90
2019-03-20T20:33:43.102Z,999.90
2019-03-20T20:38:46.516Z,999.90
2019-03-20T20:43:49.955Z,999.90
2019-03-20T20:48:53.774Z,999.90
2019-03-20T20:53:57.740Z,999.90
2019-03-20T20:59:02.221Z,999.90
2019-03-20T21:04:06.094Z,999.90
2019-03-20T21:09:09.910Z,999.90
2019-03-20T21:14:13.273Z,999.90
2019-03-20T21:19:36.143Z,999.90
2019-03-20T21:24:40.378Z,999.90
2019-03-20T21:30:15.419Z,999.90
2019-03-20T21:35:48.550Z,999.90
2019-03-20T21:41:02.728Z,999.90
2019-03-20T21:46:12.558Z,999.90
2019-03-20T21:51:16.787Z,999.90
2019-03-20T21:56:28.871Z,999.90
2019-03-20T22:01:50.255Z,999.90
2019-03-20T22:07:22.866Z,999.90
2019-03-20T22:12:31.137Z,999.90
2019-03-20T22:18:08.951Z,999.90
2019-03-20T22:23:17.413Z,999.90
2019-03-20T22:28:46.568Z,999.90
2019-03-20T22:34:32.972Z,999.90
2019-03-20T22:40:10.891Z,999.90
2019-03-20T22:45:28.213Z,999.90
2019-03-20T22:50:44.365Z,999.90
2019-03-20T22:56:05.821Z,999.90
2019-03-20T23:01:11.252Z,999.90
2019-03-20T23:06:15.513Z,999.90
2019-03-20T23:11:19.767Z,999.90
2019-03-20T23:16:24.110Z,999.90
2019-03-20T23:21:28.545Z,999.90
2019-03-20T23:26:32.869Z,999.90
2019-03-20T23:31:37.746Z,999.90
2019-03-20T23:36:41.973Z,999.90
2019-03-20T23:41:46.377Z,999.90
2019-03-20T23:46:50.076Z,999.90
2019-03-20T23:51:53.782Z,999.90
2019-03-20T23:56:57.462Z,999.90
